Calumet — WDE3568 — position and weather

sailwx.info

Track history (hours):
 
Tides and Currents Weather Stations Pressure Air Temp Water Temp Dewpoint Dewpoint Depression Visibility Wind Speed Wind Dir Waves Ship Positions

Calumet

Owner: Grand River Navigation Company, Traverse City, MI. More information available from US FCC via Universal Licensing System and Coast Guard Vessel Documentation Center.

Last reported at 2015-Aug-29 12:34 UTC. Time now 2015-Aug-29 12:45 UTC.
Position N 45°59' W 084°17'.

Length 192 m; draft 6.7 m.

Type: Cargo ship. MMSI: 367132630.

Date/timePositionNaut miles runAvg speedWind from/ knotsBaromVisibWave heightAir tempDewpointWater temp
2015-Aug-29 12:34N 45°59' W 084°17'0 0.0
2015-Aug-29 11:33N 45°59' W 084°17'4 3.7
2015-Aug-29 10:33N 45°56' W 084°14'1212.4
2015-Aug-29 09:33N 45°52' W 084°30'1212.4
2015-Aug-29 08:33N 45°49' W 084°48'1212.2
2015-Aug-29 07:33N 45°51' W 085°05'1211.7
2015-Aug-29 06:33N 45°52' W 085°22'1111.1
2015-Aug-29 05:33N 45°52' W 085°38'1515.0
2015-Aug-29 04:33N 45°46' W 085°57'1313.2
2015-Aug-29 03:33N 45°39' W 086°14'2511.9
2015-Aug-29 01:28N 45°26' W 086°44'1712.1
2015-Aug-29 00:05N 45°21' W 087°07'8 0.4
2015-Aug-28 04:32N 45°17' W 087°16'1212.6
2015-Aug-28 03:32N 45°24' W 087°01'1010.2
2015-Aug-28 02:33N 45°26' W 086°47'1010.4
2015-Aug-28 01:33N 45°31' W 086°34'1111.2
2015-Aug-28 00:33N 45°38' W 086°21'1211.7
2015-Aug-27 23:33N 45°45' W 086°09'1212.2
2015-Aug-27 22:34N 45°53' W 085°55'5 5.5
2015-Aug-27 21:34N 45°58' W 085°52'0 0.0
2015-Aug-27 20:33N 45°58' W 085°52'0 0.0
2015-Aug-27 19:33N 45°58' W 085°52'0 0.0
2015-Aug-27 18:33N 45°58' W 085°52'0 0.0
2015-Aug-27 17:33N 45°58' W 085°52'0 0.0
2015-Aug-27 16:32N 45°58' W 085°52'0 0.0
2015-Aug-27 15:33N 45°58' W 085°52'0 0.0
2015-Aug-27 14:33N 45°58' W 085°52'0 0.0
2015-Aug-27 13:33N 45°58' W 085°52'0 0.1
2015-Aug-27 12:33N 45°58' W 085°52'3 3.2
2015-Aug-27 11:34N 45°55' W 085°53'1111.1
2015-Aug-27 10:33N 45°45' W 085°58'1212.3
2015-Aug-27 09:33N 45°33' W 086°05'31 1.0
2015-Aug-26 01:12N 45°03' W 086°15'811.0
2015-Aug-26 00:30N 45°10' W 086°13'1112.2
2015-Aug-25 23:33N 45°21' W 086°09'1212.0
2015-Aug-25 22:33N 45°33' W 086°05'1211.6
2015-Aug-25 21:34N 45°44' W 085°59'1312.6
2015-Aug-25 20:34N 45°56' W 085°53'3 2.4
2015-Aug-25 19:32N 45°58' W 085°52'0 0.0
2015-Aug-25 18:29N 45°58' W 085°52'0 0.0
2015-Aug-25 17:29N 45°58' W 085°52'0 0.0
2015-Aug-25 16:29N 45°58' W 085°52'0 0.1
2015-Aug-25 15:30N 45°58' W 085°52'0 0.0
2015-Aug-25 14:29N 45°58' W 085°52'0 0.0
2015-Aug-25 13:32N 45°58' W 085°52'0 0.0
2015-Aug-25 12:30N 45°58' W 085°52'0 0.1
2015-Aug-25 11:33N 45°58' W 085°52'6 5.8
2015-Aug-25 10:33N 45°52' W 085°52'1212.0
2015-Aug-25 09:33N 45°44' W 086°04'  
2015-Aug-23 02:32N 44°45' W 086°20'1010.3
2015-Aug-23 01:33N 44°55' W 086°17'1111.2
2015-Aug-23 00:33N 45°06' W 086°13'1111.1
2015-Aug-22 23:33N 45°16' W 086°10'1110.9
2015-Aug-22 22:33N 45°27' W 086°07'1111.4
2015-Aug-22 21:33N 45°38' W 086°04'1010.2
2015-Aug-22 20:33N 45°46' W 085°54'1110.8
2015-Aug-22 19:33N 45°51' W 085°40'1010.4
2015-Aug-22 18:34N 45°54' W 085°26'1111.3
2015-Aug-22 17:33N 45°52' W 085°10'1212.2
2015-Aug-22 16:33N 45°50' W 084°53'1212.0
2015-Aug-22 15:33N 45°46' W 084°37'1211.8
2015-Aug-22 14:33N 45°41' W 084°21'1010.1
2015-Aug-22 13:33N 45°39' W 084°07'  
Track history (hours):
 
Tides and Currents Weather Stations Pressure Air Temp Water Temp Dewpoint Dewpoint Depression Visibility Wind Speed Wind Dir Waves Ship Positions

Calumet

Owner: Grand River Navigation Company, Traverse City, MI. More information available from US FCC via Universal Licensing System and Coast Guard Vessel Documentation Center.

Last reported at 2015-Aug-29 12:34 UTC. Time now 2015-Aug-29 12:45 UTC.
Position N 45°59' W 084°17'.

Length 192 m; draft 6.7 m.

Type: Cargo ship. MMSI: 367132630.

Date/timePositionNaut miles runAvg speedWind from/ knotsBaromVisibWave heightAir tempDewpointWater temp
2015-Aug-29 12:34N 45°59' W 084°17'0 0.0
2015-Aug-29 11:33N 45°59' W 084°17'4 3.7
2015-Aug-29 10:33N 45°56' W 084°14'1212.4
2015-Aug-29 09:33N 45°52' W 084°30'1212.4
2015-Aug-29 08:33N 45°49' W 084°48'1212.2
2015-Aug-29 07:33N 45°51' W 085°05'1211.7
2015-Aug-29 06:33N 45°52' W 085°22'1111.1
2015-Aug-29 05:33N 45°52' W 085°38'1515.0
2015-Aug-29 04:33N 45°46' W 085°57'1313.2
2015-Aug-29 03:33N 45°39' W 086°14'2511.9
2015-Aug-29 01:28N 45°26' W 086°44'1712.1
2015-Aug-29 00:05N 45°21' W 087°07'8 0.4
2015-Aug-28 04:32N 45°17' W 087°16'1212.6
2015-Aug-28 03:32N 45°24' W 087°01'1010.2
2015-Aug-28 02:33N 45°26' W 086°47'1010.4
2015-Aug-28 01:33N 45°31' W 086°34'1111.2
2015-Aug-28 00:33N 45°38' W 086°21'1211.7
2015-Aug-27 23:33N 45°45' W 086°09'1212.2
2015-Aug-27 22:34N 45°53' W 085°55'5 5.5
2015-Aug-27 21:34N 45°58' W 085°52'0 0.0
2015-Aug-27 20:33N 45°58' W 085°52'0 0.0
2015-Aug-27 19:33N 45°58' W 085°52'0 0.0
2015-Aug-27 18:33N 45°58' W 085°52'0 0.0
2015-Aug-27 17:33N 45°58' W 085°52'0 0.0
2015-Aug-27 16:32N 45°58' W 085°52'0 0.0
2015-Aug-27 15:33N 45°58' W 085°52'0 0.0
2015-Aug-27 14:33N 45°58' W 085°52'0 0.0
2015-Aug-27 13:33N 45°58' W 085°52'0 0.1
2015-Aug-27 12:33N 45°58' W 085°52'3 3.2
2015-Aug-27 11:34N 45°55' W 085°53'1111.1
2015-Aug-27 10:33N 45°45' W 085°58'1212.3
2015-Aug-27 09:33N 45°33' W 086°05'31 1.0
2015-Aug-26 01:12N 45°03' W 086°15'811.0
2015-Aug-26 00:30N 45°10' W 086°13'1112.2
2015-Aug-25 23:33N 45°21' W 086°09'1212.0
2015-Aug-25 22:33N 45°33' W 086°05'1211.6
2015-Aug-25 21:34N 45°44' W 085°59'1312.6
2015-Aug-25 20:34N 45°56' W 085°53'3 2.4
2015-Aug-25 19:32N 45°58' W 085°52'0 0.0
2015-Aug-25 18:29N 45°58' W 085°52'0 0.0
2015-Aug-25 17:29N 45°58' W 085°52'0 0.0
2015-Aug-25 16:29N 45°58' W 085°52'0 0.1
2015-Aug-25 15:30N 45°58' W 085°52'0 0.0
2015-Aug-25 14:29N 45°58' W 085°52'0 0.0
2015-Aug-25 13:32N 45°58' W 085°52'0 0.0
2015-Aug-25 12:30N 45°58' W 085°52'0 0.1
2015-Aug-25 11:33N 45°58' W 085°52'6 5.8
2015-Aug-25 10:33N 45°52' W 085°52'1212.0
2015-Aug-25 09:33N 45°44' W 086°04'  
2015-Aug-23 02:32N 44°45' W 086°20'1010.3
2015-Aug-23 01:33N 44°55' W 086°17'1111.2
2015-Aug-23 00:33N 45°06' W 086°13'1111.1
2015-Aug-22 23:33N 45°16' W 086°10'1110.9
2015-Aug-22 22:33N 45°27' W 086°07'1111.4
2015-Aug-22 21:33N 45°38' W 086°04'1010.2
2015-Aug-22 20:33N 45°46' W 085°54'1110.8
2015-Aug-22 19:33N 45°51' W 085°40'1010.4
2015-Aug-22 18:34N 45°54' W 085°26'1111.3
2015-Aug-22 17:33N 45°52' W 085°10'1212.2
2015-Aug-22 16:33N 45°50' W 084°53'1212.0
2015-Aug-22 15:33N 45°46' W 084°37'1211.8
2015-Aug-22 14:33N 45°41' W 084°21'1010.1
2015-Aug-22 13:33N 45°39' W 084°07'  

Dump ship's entire track history